Time;durP1;ratioP1;P1;durP2;ratioP2;P2;SDS_P1;SDS_P2;PMS_P1;PMS_P2;Temp;Humidity;BMP_temperature;BMP_pressure;BME280_temperature;BME280_humidity;BME280_pressure;Samples;Min_cycle;Max_cycle;Signal;HPM_P1;HPM_P2
2021/11/09 00:01:02;;;;;;;9.00;4.40;;;;;;;7.11;70.45;99815.00;1739264;82;21548;-66
2021/11/09 00:03:29;;;;;;;8.00;4.00;;;;;;;7.14;70.49;99815.85;1739135;82;21546;-66
2021/11/09 00:06:21;;;;;;;8.80;4.45;;;;;;;7.18;70.50;99827.83;1739153;82;21035;-66
2021/11/09 00:08:48;;;;;;;7.45;4.20;;;;;;;7.14;70.63;99828.03;1738402;82;21507;-66
2021/11/09 00:11:10;;;;;;;7.85;3.87;;;;;;;7.12;70.78;99822.59;1738426;82;21027;-65
2021/11/09 00:13:37;;;;;;;8.70;3.77;;;;;;;7.15;70.76;99817.50;1739305;82;21023;-65
2021/11/09 00:16:06;;;;;;;6.85;3.70;;;;;;;7.14;70.82;99821.27;1738826;82;21039;-65
2021/11/09 00:18:32;;;;;;;7.85;3.80;;;;;;;7.11;70.98;99819.59;1739102;81;21110;-65
2021/11/09 00:20:59;;;;;;;;;;;;;;;7.08;71.06;99830.38;1755448;82;21043;-66
2021/11/09 00:23:25;;;;;;;7.92;4.05;;;;;;;7.13;70.97;99816.91;1752927;82;20122;-66
2021/11/09 00:25:52;;;;;;;7.55;3.83;;;;;;;7.06;71.13;99816.26;1752803;82;21054;-65
2021/11/09 00:28:18;;;;;;;5.45;3.52;;;;;;;6.99;71.33;99808.31;1753036;82;21063;-66
2021/11/09 00:30:44;;;;;;;8.60;3.80;;;;;;;6.97;71.42;99819.10;1753016;82;21015;-66
2021/11/09 00:33:11;;;;;;;7.42;3.70;;;;;;;6.99;71.41;99819.66;1752761;82;21066;-66
2021/11/09 00:35:37;;;;;;;8.05;4.35;;;;;;;6.99;71.39;99821.84;1753007;82;21086;-66
2021/11/09 00:38:07;;;;;;;10.82;5.33;;;;;;;6.94;71.47;99825.80;1753109;82;21059;-66
2021/11/09 00:40:35;;;;;;;6.87;3.98;;;;;;;6.82;71.68;99827.79;1752862;82;21391;-66
2021/11/09 00:43:03;;;;;;;7.40;4.15;;;;;;;6.81;71.91;99830.20;1752943;82;21128;-65
2021/11/09 00:45:30;;;;;;;7.40;4.03;;;;;;;6.80;72.00;99828.55;1752817;82;21059;-66
2021/11/09 00:47:59;;;;;;;7.25;4.10;;;;;;;6.81;72.07;99832.08;1752742;82;21074;-66
2021/11/09 00:50:26;;;;;;;6.47;3.83;;;;;;;6.77;72.14;99831.75;1752827;82;21557;-66
2021/11/09 00:52:53;;;;;;;7.83;4.10;;;;;;;6.70;72.36;99829.73;1753103;82;21078;-65
2021/11/09 00:55:20;;;;;;;9.18;4.25;;;;;;;6.66;72.52;99838.04;1752762;82;21066;-66
2021/11/09 00:57:47;;;;;;;8.83;4.42;;;;;;;6.64;72.66;99842.89;1753165;82;21089;-66
2021/11/09 01:00:18;;;;;;;9.40;4.80;;;;;;;6.62;72.77;99838.80;1753059;82;21059;-66
2021/11/09 01:02:44;;;;;;;7.65;4.58;;;;;;;6.56;73.00;99832.98;1753033;82;21542;-66
2021/11/09 01:05:11;;;;;;;8.40;3.98;;;;;;;6.50;73.27;99835.61;1753357;82;21054;-65
2021/11/09 01:07:39;;;;;;;8.00;3.52;;;;;;;6.50;73.35;99841.02;1752995;82;21696;-66
2021/11/09 01:10:06;;;;;;;5.55;3.60;;;;;;;6.50;73.41;99834.78;1753441;82;21549;-65
2021/11/09 01:12:34;;;;;;;5.55;3.42;;;;;;;6.49;73.50;99838.55;1752820;82;21068;-66
2021/11/09 01:15:05;;;;;;;6.10;3.83;;;;;;;6.42;73.73;99844.11;1752930;82;21071;-66
2021/11/09 01:17:32;;;;;;;5.67;3.45;;;;;;;6.39;73.91;99845.12;1752896;82;21562;-66
2021/11/09 01:19:58;;;;;;;8.50;3.45;;;;;;;6.44;73.94;99841.17;1745994;81;21024;-65
2021/11/09 01:22:25;;;;;;;7.10;3.50;;;;;;;6.47;73.88;99850.98;1739188;82;21027;-66
2021/11/09 01:24:51;;;;;;;8.55;3.85;;;;;;;6.46;73.91;99859.31;1739130;82;21055;-65
2021/11/09 01:27:17;;;;;;;6.30;3.75;;;;;;;6.40;74.08;99861.64;1739242;82;21934;-65
2021/11/09 01:29:44;;;;;;;6.47;3.10;;;;;;;6.38;74.21;99859.69;1739218;82;21553;-65
2021/11/09 01:32:11;;;;;;;6.65;2.92;;;;;;;6.39;74.22;99872.16;1739110;82;21058;-66
2021/11/09 01:34:37;;;;;;;6.22;3.10;;;;;;;6.43;74.22;99873.33;1738791;82;21067;-65
2021/11/09 01:37:04;;;;;;;5.00;2.67;;;;;;;6.43;74.15;99870.63;1739078;82;21059;-66
2021/11/09 01:39:30;;;;;;;;;;;;;;;6.41;74.08;99864.09;1741498;82;21068;-65
2021/11/09 01:41:57;;;;;;;4.97;2.47;;;;;;;6.39;73.98;99868.11;1739070;82;20103;-65
2021/11/09 01:44:26;;;;;;;4.58;2.50;;;;;;;6.34;73.80;99870.73;1738941;82;21087;-66
2021/11/09 01:46:52;;;;;;;4.40;1.95;;;;;;;6.32;73.71;99874.19;1739187;82;21054;-65
2021/11/09 01:49:18;;;;;;;4.50;1.92;;;;;;;6.26;73.69;99873.28;1739345;82;21547;-65
2021/11/09 01:51:45;;;;;;;6.00;1.35;;;;;;;6.20;73.74;99887.73;1739558;82;21051;-65
2021/11/09 01:54:11;;;;;;;2.90;1.50;;;;;;;6.17;73.83;99887.39;1739344;82;21004;-65
2021/11/09 01:56:37;;;;;;;2.15;1.07;;;;;;;6.16;73.86;99884.42;1739442;82;21115;-66
2021/11/09 01:59:04;;;;;;;2.87;1.30;;;;;;;6.11;74.04;99889.18;1738860;82;21648;-65
2021/11/09 02:01:32;;;;;;;3.35;1.10;;;;;;;6.11;74.04;99889.18;1738832;82;21074;-66
2021/11/09 02:04:02;;;;;;;2.65;0.95;;;;;;;6.05;74.15;99900.13;1739313;82;21546;-65
2021/11/09 02:06:28;;;;;;;1.55;0.93;;;;;;;6.07;74.23;99907.45;1739090;81;21055;-65
2021/11/09 02:09:05;;;;;;;2.00;0.68;;;;;;;6.07;74.21;99904.75;1739401;82;21641;-66
2021/11/09 02:11:31;;;;;;;1.98;0.98;;;;;;;6.03;74.23;99904.41;1734780;82;21578;-67
2021/11/09 02:13:58;;;;;;;2.00;0.80;;;;;;;5.94;74.31;99904.50;1738933;82;21064;-66
2021/11/09 02:16:25;;;;;;;2.30;0.80;;;;;;;5.92;74.19;99904.72;1739011;82;21042;-66
2021/11/09 02:18:51;;;;;;;1.35;0.57;;;;;;;5.93;74.07;99910.42;1739181;82;21094;-67
2021/11/09 02:21:18;;;;;;;1.95;0.78;;;;;;;5.93;74.03;99902.84;1751733;81;21090;-66
2021/11/09 02:23:46;;;;;;;2.10;0.95;;;;;;;5.87;74.09;99904.63;1753265;82;21569;-66
2021/11/09 02:26:18;;;;;;;1.70;0.98;;;;;;;5.78;74.16;99911.40;1752917;82;21023;-67
2021/11/09 02:28:45;;;;;;;1.62;0.60;;;;;;;5.76;74.12;99918.11;1753309;82;20979;-67
2021/11/09 02:31:12;;;;;;;1.52;0.70;;;;;;;5.75;74.12;99917.28;1752960;82;21007;-66
2021/11/09 02:33:38;;;;;;;1.22;0.65;;;;;;;5.73;74.15;99920.76;1753375;82;20991;-67
2021/11/09 02:36:04;;;;;;;;;;;;;;;5.69;74.16;99926.86;1755760;82;21007;-66
2021/11/09 02:38:31;;;;;;;1.60;0.75;;;;;;;5.63;74.14;99931.86;1753246;82;20154;-67
2021/11/09 02:40:57;;;;;;;1.60;0.70;;;;;;;5.61;74.26;99946.11;1753157;82;20983;-67
2021/11/09 02:43:24;;;;;;;1.90;0.90;;;;;;;5.62;74.11;99937.78;1752913;82;21047;-67
2021/11/09 02:46:29;;;;;;;1.90;0.72;;;;;;;5.59;74.27;99944.19;1752927;82;21056;-68
2021/11/09 02:48:51;;;;;;;1.27;0.68;;;;;;;5.54;74.30;99934.07;1749169;82;20991;-66
2021/11/09 02:51:21;;;;;;;1.20;0.50;;;;;;;5.52;74.31;99937.55;1752109;82;21109;-66
2021/11/09 02:53:48;;;;;;;1.72;0.60;;;;;;;5.56;74.20;99941.95;1751795;82;21569;-66
2021/11/09 02:56:18;;;;;;;1.17;0.65;;;;;;;5.56;74.09;99950.88;1752360;82;21050;-66
2021/11/09 03:01:19;;;;;;;1.15;0.50;;;;;;;5.47;73.67;99947.69;1752734;82;21039;-66
2021/11/09 03:09:00;;;;;;;1.77;0.62;;;;;;;5.40;73.47;99949.67;1752842;82;21035;-66
2021/11/09 03:11:24;;;;;;;1.98;0.75;;;;;;;5.39;73.48;99948.55;1752526;81;21067;-66
2021/11/09 03:13:51;;;;;;;2.05;0.65;;;;;;;5.43;73.36;99952.43;1753102;82;20987;-67
2021/11/09 03:16:18;;;;;;;2.27;0.95;;;;;;;5.42;73.32;99961.61;1753077;82;21038;-66
2021/11/09 03:18:53;;;;;;;1.27;0.60;;;;;;;5.35;73.45;99956.29;1753011;82;21530;-66
2021/11/09 03:40:27;;;;;;;1.72;0.70;;;;;;;5.16;73.53;99977.69;1739225;82;21041;-67
2021/11/09 03:45:32;;;;;;;1.80;0.60;;;;;;;5.07;73.66;99987.14;1739032;82;21034;-66
2021/11/09 03:48:08;;;;;;;1.50;0.65;;;;;;;5.11;73.05;99996.95;1738889;82;21047;-66
2021/11/09 03:50:31;;;;;;;1.07;0.50;;;;;;;5.07;72.67;99999.80;1737907;82;21511;-66
2021/11/09 03:56:24;;;;;;;1.32;0.50;;;;;;;4.98;72.13;99997.45;1799492;79;22472;-65
2021/11/09 03:58:48;;;;;;;1.17;0.55;;;;;;;4.90;72.09;100002.33;1751997;82;21019;-65
2021/11/09 04:01:22;;;;;;;2.25;0.60;;;;;;;4.82;72.17;100006.69;1753120;82;20996;-65
2021/11/09 04:06:35;;;;;;;1.22;0.50;;;;;;;4.73;72.18;100005.37;1753015;82;21019;-65
2021/11/09 04:12:00;;;;;;;3.52;0.72;;;;;;;4.49;72.45;100003.91;1753152;82;21553;-65
2021/11/09 04:14:31;;;;;;;1.05;0.50;;;;;;;4.43;72.55;100014.22;1751497;82;21538;-65
2021/11/09 04:27:33;;;;;;;1.77;0.60;;;;;;;4.14;73.02;100016.33;1753148;82;21628;-65
2021/11/09 04:30:02;;;;;;;0.90;0.40;;;;;;;4.07;73.28;100013.40;1750040;82;21085;-67
2021/11/09 04:32:37;;;;;;;1.40;0.62;;;;;;;3.97;73.60;100024.14;1748487;82;21023;-65
2021/11/09 05:09:53;;;;;;;2.40;1.00;;;;;;;2.90;76.70;100080.83;1752275;82;21058;-66
2021/11/09 05:12:14;;;;;;;3.42;1.15;;;;;;;2.82;76.84;100088.29;1751384;82;21122;-64
2021/11/09 05:14:40;;;;;;;7.45;1.65;;;;;;;2.78;76.78;100085.20;1752258;82;21043;-64
2021/11/09 05:17:07;;;;;;;3.37;1.62;;;;;;;2.74;76.80;100095.24;1752685;82;21007;-65
2021/11/09 05:19:33;;;;;;;4.20;2.02;;;;;;;2.63;76.96;100099.41;1752438;82;21047;-65
2021/11/09 05:22:00;;;;;;;;;;;;;;;2.53;77.23;100108.44;1754986;82;21066;-65
2021/11/09 05:24:26;;;;;;;3.33;1.60;;;;;;;2.50;77.44;100108.35;1752319;81;20499;-65
2021/11/09 05:26:52;;;;;;;3.17;1.65;;;;;;;2.48;77.58;100118.47;1752664;82;21588;-64
2021/11/09 05:29:18;;;;;;;2.27;1.27;;;;;;;2.50;77.60;100123.64;1752468;81;21552;-65
2021/11/09 05:31:45;;;;;;;2.87;1.47;;;;;;;2.49;77.67;100128.70;1752754;82;21062;-65
2021/11/09 05:34:11;;;;;;;2.60;1.40;;;;;;;2.46;77.86;100129.13;1752419;82;21546;-65
2021/11/09 05:36:40;;;;;;;3.90;1.40;;;;;;;2.49;77.97;100145.66;1752498;82;21070;-65
2021/11/09 05:39:14;;;;;;;4.25;1.55;;;;;;;2.55;77.87;100145.32;1752641;82;21015;-64
2021/11/09 05:41:39;;;;;;;3.17;1.22;;;;;;;2.58;77.74;100150.81;1751855;82;21031;-64
2021/11/09 05:44:06;;;;;;;2.37;1.50;;;;;;;2.60;77.77;100154.11;1752551;82;21032;-64
2021/11/09 05:46:35;;;;;;;3.77;1.40;;;;;;;2.56;77.40;100151.52;1752210;82;21039;-65
2021/11/09 05:49:02;;;;;;;1.52;1.00;;;;;;;2.53;77.15;100160.02;1752540;82;21043;-65
2021/11/09 05:51:28;;;;;;;;;;;;;;;2.50;76.60;100154.55;1754813;82;21102;-65
2021/11/09 05:53:55;;;;;;;2.72;1.20;;;;;;;2.46;76.35;100163.55;1752454;81;20159;-65
2021/11/09 05:56:22;;;;;;;3.47;1.20;;;;;;;2.33;76.46;100150.14;1752889;81;21633;-64
2021/11/09 05:58:48;;;;;;;2.92;1.50;;;;;;;2.32;76.56;100163.25;1753753;82;21522;-64
2021/11/09 06:01:15;;;;;;;2.10;1.30;;;;;;;2.37;76.38;100168.81;1753236;82;21855;-65
2021/11/09 06:03:42;;;;;;;3.17;1.22;;;;;;;2.40;76.22;100177.83;1753152;82;21515;-65
2021/11/09 06:06:08;;;;;;;3.12;1.47;;;;;;;2.44;76.24;100188.44;1753288;82;21083;-64
2021/11/09 06:08:34;;;;;;;4.53;1.45;;;;;;;2.42;76.42;100191.03;1753123;82;21047;-66
2021/11/09 06:11:02;;;;;;;2.98;1.20;;;;;;;2.45;76.52;100195.47;1753228;82;21059;-65
2021/11/09 06:13:30;;;;;;;2.30;1.15;;;;;;;2.53;76.38;100197.13;1753017;82;21534;-66
2021/11/09 06:15:57;;;;;;;2.02;1.10;;;;;;;2.55;76.35;100204.99;1753125;82;21058;-65
2021/11/09 06:18:24;;;;;;;2.42;1.17;;;;;;;2.53;76.26;100204.36;1753129;82;21043;-65
2021/11/09 06:20:50;;;;;;;1.62;1.00;;;;;;;2.56;76.12;100204.77;1753559;82;21036;-65
2021/11/09 06:23:17;;;;;;;1.80;1.10;;;;;;;2.59;75.70;100209.72;1753285;82;21467;-65
2021/11/09 06:25:44;;;;;;;2.47;1.10;;;;;;;2.56;75.40;100222.75;1753546;82;21514;-65
2021/11/09 06:28:11;;;;;;;;;;;;;;;2.50;75.27;100221.22;1755823;82;21550;-65
2021/11/09 06:30:39;;;;;;;1.60;0.98;;;;;;;2.53;75.14;100221.83;1753133;82;20107;-65
2021/11/09 06:33:05;;;;;;;1.40;1.00;;;;;;;2.53;74.97;100230.72;1752950;82;21137;-65
2021/11/09 06:35:32;;;;;;;2.05;1.00;;;;;;;2.49;74.83;100237.03;1753467;82;20998;-65
2021/11/09 06:37:58;;;;;;;1.67;0.80;;;;;;;2.49;74.52;100238.88;1753042;82;21083;-65
2021/11/09 06:40:24;;;;;;;1.85;1.00;;;;;;;2.52;74.34;100238.46;1753522;82;21007;-65
2021/11/09 06:42:51;;;;;;;1.57;0.90;;;;;;;2.58;74.24;100236.83;1753148;82;21071;-65
2021/11/09 06:45:17;;;;;;;1.82;1.07;;;;;;;2.58;74.13;100242.20;1753487;82;21475;-65
2021/11/09 06:47:45;;;;;;;3.52;1.30;;;;;;;2.51;74.22;100248.38;1753163;82;21051;-65
2021/11/09 06:50:12;;;;;;;1.62;1.15;;;;;;;2.50;74.13;100243.23;1752980;82;21030;-65
2021/11/09 06:52:38;;;;;;;2.12;1.25;;;;;;;2.47;74.00;100249.86;1753281;82;21089;-67
2021/11/09 06:55:06;;;;;;;;;;;;;;;2.45;74.04;100259.97;1753215;81;21625;-65
2021/11/09 06:57:32;;;;;;;2.37;1.27;;;;;;;2.44;74.12;100265.56;1739393;82;20104;-65
2021/11/09 06:59:59;;;;;;;;;;;;;;;2.33;74.32;100260.80;1741516;82;21079;-65
2021/11/09 07:02:31;;;;;;;2.95;1.32;;;;;;;2.36;74.30;100259.05;1738962;82;20134;-65
2021/11/09 07:04:54;;;;;;;1.90;1.20;;;;;;;2.36;74.06;100265.25;1724967;82;21610;-66
2021/11/09 07:07:20;;;;;;;3.00;1.42;;;;;;;2.36;73.91;100285.40;1734419;82;21597;-65
2021/11/09 07:09:46;;;;;;;3.65;1.50;;;;;;;2.34;73.91;100286.10;1719438;82;21574;-65
2021/11/09 07:12:13;;;;;;;4.28;1.57;;;;;;;2.30;74.06;100284.05;1736596;81;21479;-65
2021/11/09 07:14:39;;;;;;;2.85;1.20;;;;;;;2.34;73.96;100293.33;1757737;81;20992;-65
2021/11/09 07:17:07;;;;;;;3.92;1.75;;;;;;;2.38;73.75;100290.55;1730125;82;21115;-65
2021/11/09 07:19:35;;;;;;;4.20;1.42;;;;;;;2.37;73.34;100290.27;1738442;81;20988;-65
2021/11/09 07:22:03;;;;;;;4.60;2.20;;;;;;;2.32;73.07;100301.61;1739142;82;21617;-65
2021/11/09 07:24:32;;;;;;;2.95;1.65;;;;;;;2.36;72.96;100297.48;1729189;82;21553;-67
2021/11/09 07:26:59;;;;;;;2.90;1.45;;;;;;;2.55;72.79;100308.47;1723385;82;21036;-65
2021/11/09 07:29:25;;;;;;;4.17;1.80;;;;;;;2.81;72.60;100310.63;1739041;82;21047;-66
2021/11/09 07:31:55;;;;;;;4.80;2.40;;;;;;;2.97;71.96;100312.08;1738989;82;21059;-66
2021/11/09 07:34:21;;;;;;;3.17;1.95;;;;;;;3.01;71.24;100311.43;1712490;82;21059;-65
2021/11/09 07:36:47;;;;;;;4.05;1.85;;;;;;;2.99;70.83;100317.55;1651490;86;21070;-66
2021/11/09 07:39:14;;;;;;;;;;;;;;;2.97;70.46;100319.63;1736850;82;21043;-66
2021/11/09 07:41:40;;;;;;;3.22;1.57;;;;;;;2.98;70.30;100321.78;1733050;82;20113;-65
2021/11/09 07:44:08;;;;;;;3.65;2.08;;;;;;;2.85;70.63;100323.14;1709240;84;21063;-66
2021/11/09 07:46:37;;;;;;;2.62;1.85;;;;;;;2.83;70.52;100325.22;1709611;84;21621;-66
2021/11/09 07:49:03;;;;;;;2.47;1.60;;;;;;;2.81;70.46;100322.72;1709512;84;21047;-66
2021/11/09 07:51:30;;;;;;;3.37;1.30;;;;;;;2.87;70.31;100328.61;1709864;83;21051;-66
2021/11/09 07:53:59;;;;;;;2.90;1.70;;;;;;;2.91;69.71;100336.58;1716028;82;20988;-66
2021/11/09 07:56:33;;;;;;;2.20;1.57;;;;;;;2.82;69.26;100347.76;1747242;81;21051;-65
2021/11/09 08:01:59;;;;;;;2.12;1.20;;;;;;;2.69;68.86;100355.31;1740850;82;21055;-65
2021/11/09 08:04:25;;;;;;;2.02;1.10;;;;;;;2.74;69.00;100354.16;1749130;82;21522;-65
2021/11/09 08:06:54;;;;;;;2.33;1.15;;;;;;;2.80;68.55;100366.77;1747239;82;21126;-64
2021/11/09 08:09:29;;;;;;;2.98;1.60;;;;;;;2.87;68.66;100377.56;1734037;81;21015;-65
2021/11/09 08:11:56;;;;;;;3.10;1.50;;;;;;;3.01;68.67;100369.80;1734977;81;21062;-65
2021/11/09 08:14:24;;;;;;;3.42;1.40;;;;;;;3.11;68.13;100368.86;1685999;85;21534;-65
2021/11/09 08:16:51;;;;;;;2.50;1.47;;;;;;;3.23;67.90;100382.48;1743710;82;21043;-66
2021/11/09 08:19:17;;;;;;;1.82;0.80;;;;;;;3.30;67.48;100372.03;1750596;82;21058;-65
2021/11/09 08:21:45;;;;;;;;;;;;;;;3.28;66.74;100388.08;1755578;82;21126;-65
2021/11/09 08:24:14;;;;;;;2.17;0.95;;;;;;;3.17;66.26;100391.41;1753264;82;20111;-65
2021/11/09 08:26:40;;;;;;;1.85;1.00;;;;;;;3.04;66.50;100399.48;1725474;82;21593;-64
2021/11/09 08:29:07;;;;;;;0.95;0.62;;;;;;;2.99;66.04;100400.09;1727287;80;21529;-63
2021/11/09 08:31:35;;;;;;;3.67;1.10;;;;;;;2.96;66.35;100401.86;1745584;82;21613;-64
2021/11/09 08:34:03;;;;;;;1.35;0.93;;;;;;;2.94;66.36;100405.28;1745380;81;21074;-64
2021/11/09 08:36:30;;;;;;;2.20;1.05;;;;;;;2.92;66.69;100413.55;1752109;82;21059;-65
2021/11/09 08:38:59;;;;;;;1.77;0.95;;;;;;;2.95;66.64;100410.95;1750284;82;21615;-69
2021/11/09 08:41:27;;;;;;;1.65;0.90;;;;;;;2.96;66.65;100404.03;1740862;82;21061;-67
2021/11/09 08:44:03;;;;;;;2.10;1.10;;;;;;;3.00;66.74;100411.17;1740980;82;21022;-65
2021/11/09 08:46:30;;;;;;;2.37;0.98;;;;;;;3.01;66.56;100410.15;1739217;82;21049;-65
2021/11/09 08:48:55;;;;;;;2.02;0.78;;;;;;;2.98;66.30;100407.84;1723030;83;20999;-65
2021/11/09 08:51:22;;;;;;;2.33;0.80;;;;;;;2.95;66.09;100417.16;1723594;83;21116;-66
2021/11/09 08:53:55;;;;;;;1.17;0.75;;;;;;;2.89;66.05;100417.16;1723508;83;21549;-65
2021/11/09 09:04:21;;;;;;;1.82;0.90;;;;;;;3.00;66.33;100440.25;1672473;86;21079;-65
2021/11/09 09:06:52;;;;;;;1.47;0.90;;;;;;;3.05;66.57;100439.61;1689156;83;21569;-66
2021/11/09 09:09:18;;;;;;;3.25;0.82;;;;;;;3.11;66.20;100438.80;1717502;83;21019;-66
2021/11/09 09:11:48;;;;;;;1.47;0.90;;;;;;;3.15;65.51;100446.78;1717206;83;21106;-66
2021/11/09 09:14:14;;;;;;;2.77;1.00;;;;;;;3.18;65.46;100457.64;1717686;83;21050;-66
2021/11/09 09:16:46;;;;;;;1.37;0.90;;;;;;;3.16;64.31;100452.45;1720021;81;21346;-66
2021/11/09 09:19:12;;;;;;;2.15;0.95;;;;;;;3.12;64.26;100457.13;1725138;82;21058;-66
2021/11/09 09:21:42;;;;;;;1.45;0.88;;;;;;;3.23;64.31;100450.59;1719357;82;21124;-66
2021/11/09 09:56:59;;;;;;;1.65;0.80;;;;;;;4.96;56.75;100474.91;1725544;82;21651;-69
2021/11/09 09:59:28;;;;;;;0.82;0.50;;;;;;;4.74;55.55;100491.98;1727629;82;21046;-65
2021/11/09 10:02:16;;;;;;;1.55;0.60;;;;;;;4.42;55.36;100491.09;1731434;82;21055;-65
2021/11/09 10:04:45;;;;;;;;;;;;;;;4.11;55.76;100490.16;1727950;82;21022;-64
2021/11/09 10:07:13;;;;;;;1.47;0.50;;;;;;;4.04;56.79;100494.74;1734850;82;20131;-65
2021/11/09 10:09:44;;;;;;;1.02;0.60;;;;;;;4.10;56.38;100493.38;1753176;82;21074;-64
2021/11/09 10:12:33;;;;;;;2.35;1.02;;;;;;;4.27;56.34;100493.22;1753015;82;21039;-64
2021/11/09 10:15:07;;;;;;;1.80;0.90;;;;;;;4.52;56.62;100486.58;1753109;82;21565;-65
2021/11/09 10:17:34;;;;;;;1.67;0.70;;;;;;;5.03;56.93;100496.77;1729283;82;21047;-65
2021/11/09 10:20:16;;;;;;;1.30;0.70;;;;;;;5.53;54.65;100491.42;1710072;84;21034;-66
2021/11/09 10:22:47;;;;;;;1.80;0.82;;;;;;;5.82;53.61;100488.56;1731703;82;21039;-65
2021/11/09 10:25:16;;;;;;;1.37;0.55;;;;;;;6.08;51.91;100492.92;1723679;82;21023;-65
2021/11/09 10:27:46;;;;;;;2.17;0.85;;;;;;;6.26;51.56;100485.66;1724920;82;21086;-65
2021/11/09 10:30:26;;;;;;;1.40;0.80;;;;;;;6.27;49.86;100488.63;1722537;83;20999;-64
2021/11/09 10:32:52;;;;;;;1.40;0.70;;;;;;;6.14;49.68;100483.91;1723392;83;21538;-64
2021/11/09 10:35:20;;;;;;;1.25;0.60;;;;;;;6.00;50.04;100484.05;1723332;83;21589;-65
2021/11/09 10:37:52;;;;;;;1.02;0.50;;;;;;;6.09;49.32;100487.30;1723590;83;21058;-65
2021/11/09 10:40:28;;;;;;;1.47;0.57;;;;;;;6.23;49.34;100478.00;1722012;83;21576;-65
2021/11/09 10:42:59;;;;;;;1.30;0.60;;;;;;;6.34;48.28;100482.62;1723150;83;21522;-65
2021/11/09 10:45:28;;;;;;;1.25;0.68;;;;;;;6.44;47.95;100495.64;1723120;83;21553;-65
2021/11/09 10:47:57;;;;;;;2.35;0.68;;;;;;;6.41;48.37;100489.33;1723358;83;21063;-65
2021/11/09 10:50:27;;;;;;;2.50;0.60;;;;;;;6.43;47.76;100500.73;1722827;83;21495;-66
2021/11/09 10:53:03;;;;;;;3.70;0.80;;;;;;;6.54;48.08;100493.22;1723284;83;21610;-66
2021/11/09 10:55:46;;;;;;;2.08;0.70;;;;;;;6.77;48.07;100494.67;1723186;83;21011;-65
2021/11/09 11:03:30;;;;;;;1.80;0.70;;;;;;;7.11;46.84;100520.25;1709605;83;21071;-65
2021/11/09 11:06:18;;;;;;;2.85;0.68;;;;;;;7.18;45.94;100511.50;1709504;84;21074;-65
2021/11/09 11:08:46;;;;;;;1.15;0.68;;;;;;;6.89;47.00;100522.63;1709910;84;21011;-65
2021/11/09 11:11:33;;;;;;;1.12;0.60;;;;;;;6.84;46.22;100520.29;1709697;84;21035;-65
2021/11/09 11:14:10;;;;;;;3.22;0.72;;;;;;;6.59;46.45;100526.36;1710070;84;20991;-66
2021/11/09 11:16:43;;;;;;;1.40;0.70;;;;;;;6.58;46.54;100529.59;1710252;84;21608;-65
2021/11/09 11:19:17;;;;;;;1.65;0.50;;;;;;;6.64;46.93;100517.02;1709729;84;21506;-65
2021/11/09 11:21:44;;;;;;;0.90;0.50;;;;;;;6.77;46.55;100524.96;1709824;83;21618;-65
2021/11/09 11:24:13;;;;;;;1.30;0.57;;;;;;;6.92;46.07;100526.75;1709960;83;21003;-65
2021/11/09 11:26:45;;;;;;;2.33;0.70;;;;;;;6.92;46.24;100534.88;1709767;83;21047;-65
2021/11/09 11:29:25;;;;;;;1.65;0.50;;;;;;;7.01;46.45;100532.96;1709895;84;21451;-65
2021/11/09 11:31:52;;;;;;;0.78;0.50;;;;;;;7.16;45.28;100527.14;1709704;84;21047;-65
2021/11/09 11:34:20;;;;;;;1.62;0.75;;;;;;;6.56;45.75;100539.80;1709864;84;21506;-65
2021/11/09 11:36:47;;;;;;;1.30;0.50;;;;;;;5.98;46.61;100546.15;1709744;84;21378;-65
2021/11/09 11:39:14;;;;;;;1.40;0.55;;;;;;;5.61;47.42;100549.75;1709747;84;20983;-65
2021/11/09 11:41:44;;;;;;;2.40;0.60;;;;;;;5.57;47.91;100543.13;1709885;84;21103;-65
2021/11/09 11:44:13;;;;;;;1.10;0.50;;;;;;;5.55;47.79;100540.66;1709581;84;20988;-65
2021/11/09 11:46:42;;;;;;;3.67;0.70;;;;;;;5.18;48.17;100542.88;1709707;83;21103;-65
2021/11/09 11:49:25;;;;;;;1.00;0.50;;;;;;;4.85;49.00;100552.52;1709772;84;20952;-65
2021/11/09 11:52:00;;;;;;;1.17;0.57;;;;;;;4.59;49.74;100560.19;1709732;84;21023;-64
2021/11/09 11:54:48;;;;;;;4.58;0.70;;;;;;;4.38;49.08;100561.81;1709794;84;21058;-65
2021/11/09 11:57:35;;;;;;;;;;;;;;;4.16;49.14;100558.54;1712252;83;21055;-65
2021/11/09 12:00:00;;;;;;;1.47;0.60;;;;;;;4.01;49.89;100566.84;1709548;84;20128;-65
2021/11/09 12:02:36;;;;;;;1.82;0.57;;;;;;;3.82;50.45;100576.30;1709702;84;21008;-64
2021/11/09 12:05:07;;;;;;;1.42;0.60;;;;;;;3.76;50.92;100578.45;1709882;83;21035;-64
2021/11/09 12:07:55;;;;;;;1.27;0.70;;;;;;;3.66;51.49;100580.73;1709318;83;21027;-64
2021/11/09 12:10:22;;;;;;;2.27;1.00;;;;;;;3.63;51.97;100580.64;1709910;83;21024;-65
2021/11/09 12:13:02;;;;;;;1.52;0.70;;;;;;;3.60;52.41;100579.71;1709795;83;21008;-64
2021/11/09 12:15:55;;;;;;;1.27;0.57;;;;;;;3.65;52.35;100587.17;1709520;83;21044;-64
2021/11/09 12:18:35;;;;;;;0.70;0.40;;;;;;;3.66;51.07;100600.93;1709824;84;21003;-64
2021/11/09 12:21:21;;;;;;;1.10;0.55;;;;;;;3.65;50.89;100597.41;1709767;83;21035;-65
2021/11/09 12:24:13;;;;;;;1.35;0.62;;;;;;;3.68;50.70;100593.49;1709385;84;21027;-64
2021/11/09 12:26:58;;;;;;;1.20;0.53;;;;;;;3.68;50.83;100603.75;1709675;84;21094;-64
2021/11/09 12:29:41;;;;;;;1.65;0.60;;;;;;;3.65;51.06;100606.83;1710083;84;21463;-64
2021/11/09 12:32:30;;;;;;;1.87;0.65;;;;;;;3.63;51.56;100609.42;1647986;86;21122;-64
2021/11/09 12:35:03;;;;;;;2.17;0.98;;;;;;;3.60;51.96;100607.14;1718885;82;21035;-61
2021/11/09 12:37:38;;;;;;;1.62;0.70;;;;;;;3.52;53.00;100624.32;1730211;82;21075;-63
2021/11/09 12:40:50;;;;;;;1.37;0.80;;;;;;;3.44;53.66;100634.76;1722109;82;21039;-63
2021/11/09 12:43:34;;;;;;;1.80;0.78;;;;;;;3.38;54.08;100636.09;1725076;82;21546;-63
2021/11/09 12:46:32;;;;;;;1.55;0.72;;;;;;;3.34;53.95;100638.36;1728192;82;21366;-62
2021/11/09 12:49:08;;;;;;;1.50;0.62;;;;;;;3.28;53.44;100644.56;1744590;81;20980;-63
2021/11/09 12:51:46;;;;;;;1.22;0.50;;;;;;;3.22;53.12;100648.07;1746963;81;21502;-63
2021/11/09 12:54:23;;;;;;;2.05;0.80;;;;;;;3.20;52.78;100642.55;1739280;82;20984;-64
2021/11/09 12:56:52;;;;;;;1.90;0.90;;;;;;;3.16;52.83;100652.05;1741271;81;21542;-64
2021/11/09 12:59:34;;;;;;;2.83;0.93;;;;;;;3.05;53.07;100654.80;1753372;81;21002;-65
2021/11/09 13:07:29;;;;;;;1.85;0.88;;;;;;;2.88;54.18;100679.88;1723301;83;21086;-63
2021/11/09 13:10:00;;;;;;;2.58;0.90;;;;;;;2.87;54.31;100682.24;1727112;82;20981;-63
2021/11/09 13:12:27;;;;;;;1.15;0.65;;;;;;;2.86;54.34;100681.11;1727538;82;21607;-65
2021/11/09 13:15:05;;;;;;;1.57;0.75;;;;;;;2.86;54.46;100679.26;1740779;82;20971;-65
2021/11/09 13:17:40;;;;;;;3.08;1.05;;;;;;;2.85;54.65;100685.66;1723294;83;21106;-64
2021/11/09 13:20:18;;;;;;;1.87;0.90;;;;;;;2.86;54.88;100698.59;1731751;82;20991;-65
2021/11/09 13:23:09;;;;;;;2.27;0.80;;;;;;;2.85;55.15;100699.61;1741560;82;21629;-64
2021/11/09 13:25:47;;;;;;;1.98;0.98;;;;;;;2.84;55.38;100708.70;1749343;82;20998;-64
2021/11/09 13:28:34;;;;;;;2.22;0.90;;;;;;;2.84;55.50;100709.53;1686309;85;21079;-64
2021/11/09 13:31:07;;;;;;;2.17;0.90;;;;;;;2.83;55.60;100714.62;1722945;83;21066;-64
2021/11/09 13:33:39;;;;;;;4.10;0.95;;;;;;;2.82;55.56;100733.62;1686436;85;21027;-64
2021/11/09 13:36:08;;;;;;;2.65;1.40;;;;;;;2.79;55.05;100732.69;1723204;83;21059;-63
2021/11/09 13:38:42;;;;;;;1.95;0.90;;;;;;;2.67;54.84;100733.73;1733813;80;21522;-64
2021/11/09 13:41:29;;;;;;;1.57;0.80;;;;;;;2.59;55.02;100737.10;1750511;82;21040;-64
2021/11/09 13:43:53;;;;;;;4.25;0.98;;;;;;;2.51;55.18;100742.91;1725557;82;21467;-64
2021/11/09 13:46:27;;;;;;;1.82;0.88;;;;;;;2.45;55.23;100753.10;1725521;82;21039;-63
2021/11/09 13:49:03;;;;;;;1.57;0.80;;;;;;;2.39;55.43;100760.61;1737894;82;20967;-64
2021/11/09 13:51:35;;;;;;;2.37;0.90;;;;;;;2.33;55.70;100770.80;1745931;82;21093;-64
2021/11/09 13:54:08;;;;;;;2.22;1.00;;;;;;;2.29;55.84;100764.65;1740151;82;21003;-63
2021/11/09 13:56:33;;;;;;;1.50;0.90;;;;;;;2.24;56.00;100771.10;1742299;81;21045;-64
2021/11/09 13:59:08;;;;;;;3.67;1.10;;;;;;;2.20;56.29;100778.71;1692474;82;21487;-63
2021/11/09 14:02:11;;;;;;;2.52;1.02;;;;;;;2.19;56.40;100784.30;1734257;82;21004;-63
2021/11/09 14:07:37;;;;;;;2.27;1.17;;;;;;;2.09;56.81;100781.91;1693769;84;21545;-64
2021/11/09 14:12:42;;;;;;;2.37;1.12;;;;;;;2.07;57.19;100804.11;1670841;84;21154;-64
2021/11/09 14:14:59;;;;;;;2.20;1.05;;;;;;;2.07;57.34;100804.61;1667385;84;21031;-64
2021/11/09 14:17:33;;;;;;;2.37;1.30;;;;;;;2.08;57.28;100824.58;1670947;84;21062;-64